createdAt,value
2023-03-20T00:02:19.525Z,7.88
2023-03-20T00:04:46.237Z,7.68
2023-03-20T00:07:12.915Z,7.95
2023-03-20T00:09:39.524Z,7.38
2023-03-20T00:12:06.466Z,7.35
2023-03-20T00:14:34.245Z,7.45
2023-03-20T00:17:01.051Z,7.30
2023-03-20T00:19:29.485Z,7.38
2023-03-20T00:21:55.844Z,7.30
2023-03-20T00:24:22.904Z,6.95
2023-03-20T00:26:50.647Z,7.25
2023-03-20T00:29:22.473Z,7.93
2023-03-20T00:31:49.510Z,7.70
2023-03-20T00:34:19.628Z,7.65
2023-03-20T00:36:46.428Z,8.25
2023-03-20T00:39:12.973Z,8.75
2023-03-20T00:41:39.470Z,9.18
2023-03-20T00:44:15.744Z,9.75
2023-03-20T00:46:42.484Z,10.93
2023-03-20T00:49:12.205Z,11.30
2023-03-20T00:51:39.640Z,10.85
2023-03-20T00:54:11.397Z,11.38
2023-03-20T00:56:43.005Z,10.63
2023-03-20T00:59:14.063Z,9.13
2023-03-20T01:01:42.226Z,9.27
2023-03-20T01:04:13.132Z,9.70
2023-03-20T01:06:39.658Z,9.80
2023-03-20T01:09:06.626Z,9.25
2023-03-20T01:11:33.298Z,10.68
2023-03-20T01:13:59.690Z,11.18
2023-03-20T01:16:27.035Z,12.43
2023-03-20T01:18:54.050Z,13.57
2023-03-20T01:21:21.033Z,14.70
2023-03-20T01:23:48.779Z,15.20
2023-03-20T01:26:23.561Z,17.45
2023-03-20T01:28:51.969Z,18.90
2023-03-20T01:31:20.999Z,19.55
2023-03-20T01:33:47.566Z,20.27
2023-03-20T01:36:15.352Z,20.80
2023-03-20T01:38:42.085Z,21.83
2023-03-20T01:41:18.261Z,21.88
2023-03-20T01:43:46.156Z,22.02
2023-03-20T01:46:19.159Z,18.77
2023-03-20T01:48:52.290Z,18.35
2023-03-20T01:51:22.456Z,20.38
2023-03-20T01:53:52.841Z,19.70
2023-03-20T01:56:19.945Z,15.50
2023-03-20T01:58:54.405Z,20.98
2023-03-20T02:01:21.868Z,24.17
2023-03-20T02:03:52.161Z,23.83
2023-03-20T02:06:37.831Z,23.60
2023-03-20T02:09:14.007Z,24.92
2023-03-20T02:11:45.167Z,23.70
2023-03-20T02:14:12.915Z,24.88
2023-03-20T02:16:54.270Z,24.75
2023-03-20T02:19:36.120Z,22.27
2023-03-20T02:22:02.673Z,23.25
2023-03-20T02:24:41.223Z,22.95
2023-03-20T02:27:14.191Z,22.98
2023-03-20T02:29:45.673Z,22.00
2023-03-20T02:32:36.736Z,22.20
2023-03-20T02:35:06.505Z,21.83
2023-03-20T02:37:36.178Z,21.52
2023-03-20T02:40:14.828Z,21.70
2023-03-20T02:42:44.197Z,20.80
2023-03-20T02:45:10.685Z,20.27
2023-03-20T02:47:41.715Z,19.05
2023-03-20T02:50:27.277Z,19.40
2023-03-20T02:53:03.578Z,18.40
2023-03-20T02:55:30.471Z,17.77
2023-03-20T02:58:22.824Z,17.80
2023-03-20T03:00:53.287Z,17.55
2023-03-20T03:03:27.740Z,17.13
2023-03-20T03:06:01.899Z,18.80
2023-03-20T03:08:31.374Z,19.75
2023-03-20T03:11:05.110Z,20.42
2023-03-20T03:13:33.684Z,20.15
2023-03-20T03:16:06.200Z,21.30
2023-03-20T03:18:39.897Z,20.88
2023-03-20T03:21:07.621Z,19.90
2023-03-20T03:23:41.092Z,20.27
2023-03-20T03:26:08.316Z,20.20
2023-03-20T03:28:38.983Z,20.63
2023-03-20T03:31:07.406Z,22.25
2023-03-20T03:33:36.244Z,19.95
2023-03-20T03:36:12.204Z,21.35
2023-03-20T03:38:44.892Z,22.20
2023-03-20T03:41:19.008Z,21.90
2023-03-20T03:44:04.524Z,25.88
2023-03-20T03:46:49.806Z,26.65
2023-03-20T03:49:21.570Z,27.15
2023-03-20T03:51:51.658Z,27.73
2023-03-20T03:54:19.846Z,32.00
2023-03-20T03:57:02.358Z,30.60
2023-03-20T03:59:49.745Z,32.08
2023-03-20T04:02:18.187Z,33.47
2023-03-20T04:04:46.561Z,31.48
2023-03-20T04:07:14.118Z,32.90
2023-03-20T04:09:40.470Z,32.13
2023-03-20T04:12:18.444Z,32.22
2023-03-20T04:14:45.039Z,33.45
2023-03-20T04:17:11.910Z,33.75
2023-03-20T04:19:38.302Z,32.95
2023-03-20T04:22:04.694Z,31.35
2023-03-20T04:24:31.108Z,32.17
2023-03-20T04:26:57.988Z,33.33
2023-03-20T04:29:24.679Z,32.20
2023-03-20T04:32:04.981Z,32.13
2023-03-20T04:34:59.970Z,31.42
2023-03-20T04:37:41.895Z,31.35
2023-03-20T04:40:08.625Z,30.58
2023-03-20T04:42:36.377Z,31.55
2023-03-20T04:45:06.515Z,30.73
2023-03-20T04:47:33.023Z,30.42
2023-03-20T04:49:59.763Z,29.75
2023-03-20T04:52:26.082Z,29.50
2023-03-20T04:54:52.722Z,29.85
2023-03-20T04:57:19.386Z,30.45
2023-03-20T04:59:46.680Z,31.15
2023-03-20T05:02:15.218Z,31.02
2023-03-20T05:04:42.732Z,31.52
2023-03-20T05:07:10.750Z,30.30
2023-03-20T05:09:47.629Z,32.00
2023-03-20T05:12:14.830Z,33.05
2023-03-20T05:15:08.526Z,34.30
2023-03-20T05:17:51.861Z,33.75
2023-03-20T05:20:37.509Z,31.92
2023-03-20T05:23:23.348Z,31.17
2023-03-20T05:26:05.919Z,31.10
2023-03-20T05:28:55.562Z,30.85
2023-03-20T05:31:26.702Z,32.00
2023-03-20T05:34:11.370Z,29.25
2023-03-20T05:37:02.012Z,28.48
2023-03-20T05:39:40.776Z,27.83
2023-03-20T05:42:07.159Z,26.52
2023-03-20T05:44:49.443Z,27.02
2023-03-20T05:47:34.714Z,28.75
2023-03-20T05:50:19.808Z,27.33
2023-03-20T05:53:16.482Z,28.98
2023-03-20T05:56:01.875Z,28.33
2023-03-20T05:58:40.333Z,29.25
2023-03-20T06:01:22.229Z,27.85
2023-03-20T06:06:48.530Z,26.65
2023-03-20T06:09:14.967Z,26.45
2023-03-20T06:11:42.101Z,25.88
2023-03-20T06:14:08.949Z,27.55
2023-03-20T06:16:38.628Z,26.23
2023-03-20T06:19:05.728Z,26.58
2023-03-20T06:21:33.026Z,25.17
2023-03-20T06:24:00.276Z,24.98
2023-03-20T06:26:28.315Z,25.88
2023-03-20T06:29:03.229Z,26.40
2023-03-20T06:31:31.338Z,27.85
2023-03-20T06:33:59.864Z,27.55
2023-03-20T06:36:26.927Z,27.42
2023-03-20T06:38:59.829Z,26.42
2023-03-20T06:41:34.193Z,26.65
2023-03-20T06:44:04.056Z,26.92
2023-03-20T06:46:50.550Z,25.17
2023-03-20T06:49:17.126Z,27.50
2023-03-20T06:51:45.524Z,28.25
2023-03-20T06:54:12.047Z,26.48
2023-03-20T06:56:38.528Z,24.80
2023-03-20T06:59:04.952Z,24.08
2023-03-20T07:01:32.077Z,22.52
2023-03-20T07:03:59.086Z,23.40
2023-03-20T07:06:31.086Z,23.35
2023-03-20T07:08:58.399Z,22.13
2023-03-20T07:11:25.042Z,21.65
2023-03-20T07:13:54.360Z,21.67
2023-03-20T07:16:32.118Z,21.42
2023-03-20T07:18:58.827Z,23.70
2023-03-20T07:21:26.647Z,23.60
2023-03-20T07:23:53.855Z,22.98
2023-03-20T07:26:20.861Z,22.27
2023-03-20T07:28:47.543Z,22.25
2023-03-20T07:31:25.380Z,21.80
2023-03-20T07:34:01.816Z,20.95
2023-03-20T07:36:29.087Z,22.02
2023-03-20T07:38:55.791Z,22.38
2023-03-20T07:41:22.667Z,22.60
2023-03-20T07:43:59.960Z,22.67
2023-03-20T07:46:44.445Z,21.95
2023-03-20T07:49:11.769Z,22.73
2023-03-20T07:51:38.791Z,23.60
2023-03-20T07:54:05.795Z,22.27
2023-03-20T07:56:32.255Z,24.05
2023-03-20T07:58:58.589Z,23.13
2023-03-20T08:01:26.040Z,23.08
2023-03-20T08:03:52.808Z,21.88
2023-03-20T08:06:19.448Z,22.70
2023-03-20T08:08:46.093Z,23.25
2023-03-20T08:11:12.957Z,22.55
2023-03-20T08:13:39.548Z,23.42
2023-03-20T08:16:06.439Z,22.88
2023-03-20T08:18:32.880Z,24.00
2023-03-20T08:20:59.208Z,23.35
2023-03-20T08:23:26.449Z,22.80
2023-03-20T08:25:54.503Z,23.05
2023-03-20T08:28:21.515Z,24.45
2023-03-20T08:30:48.018Z,25.15
2023-03-20T08:33:15.976Z,24.92
2023-03-20T08:35:43.474Z,23.70
2023-03-20T08:38:12.486Z,24.10
2023-03-20T08:40:41.338Z,24.08
2023-03-20T08:43:08.951Z,24.05
2023-03-20T08:45:35.912Z,23.63
2023-03-20T08:48:02.854Z,24.23
2023-03-20T08:50:30.567Z,23.95
2023-03-20T08:52:57.199Z,23.33
2023-03-20T08:55:23.860Z,20.67
2023-03-20T08:57:50.488Z,19.98
2023-03-20T09:00:17.297Z,19.48
2023-03-20T09:02:48.214Z,18.35
2023-03-20T09:05:14.642Z,17.15
2023-03-20T09:07:41.174Z,18.08
2023-03-20T09:10:08.362Z,20.05
2023-03-20T09:12:36.113Z,20.63
2023-03-20T09:15:02.786Z,18.50
2023-03-20T09:17:29.415Z,18.33
2023-03-20T09:19:55.836Z,16.77
2023-03-20T09:22:22.606Z,17.02
2023-03-20T09:24:49.193Z,18.75
2023-03-20T09:27:16.286Z,18.55
2023-03-20T09:29:44.206Z,18.25
2023-03-20T09:32:14.412Z,17.80
2023-03-20T09:34:41.044Z,18.15
2023-03-20T09:37:07.791Z,17.55
2023-03-20T09:39:35.198Z,17.30
2023-03-20T09:42:22.450Z,17.60
2023-03-20T09:45:01.212Z,18.13
2023-03-20T09:47:27.606Z,17.60
2023-03-20T09:49:59.576Z,18.08
2023-03-20T09:52:37.155Z,16.83
2023-03-20T09:55:12.217Z,17.02
2023-03-20T09:57:43.053Z,17.27
2023-03-20T10:00:14.382Z,16.27
2023-03-20T10:02:52.206Z,13.93
2023-03-20T10:05:22.517Z,14.27
2023-03-20T10:07:49.518Z,14.05
2023-03-20T10:10:16.789Z,13.30
2023-03-20T10:13:03.056Z,13.00
2023-03-20T10:15:38.784Z,15.35
2023-03-20T10:18:13.052Z,14.23
2023-03-20T10:20:45.589Z,15.05
2023-03-20T10:23:21.227Z,14.48
2023-03-20T10:25:53.718Z,15.85
2023-03-20T10:28:22.437Z,15.57
2023-03-20T10:30:52.307Z,15.38
2023-03-20T10:33:27.897Z,14.95
2023-03-20T10:35:57.375Z,14.73
2023-03-20T10:38:35.090Z,14.77
2023-03-20T10:41:01.864Z,14.43
2023-03-20T10:43:32.969Z,11.65
2023-03-20T10:46:15.233Z,9.90
2023-03-20T10:48:50.997Z,10.52
2023-03-20T10:51:22.822Z,11.40
2023-03-20T10:53:53.841Z,11.55
2023-03-20T10:56:27.278Z,10.25
2023-03-20T10:58:57.392Z,11.75
2023-03-20T11:01:25.273Z,10.70
2023-03-20T11:03:51.794Z,11.95
2023-03-20T11:06:20.185Z,11.65
2023-03-20T11:08:49.064Z,10.50
2023-03-20T11:11:28.148Z,11.27
2023-03-20T11:13:54.836Z,10.73
2023-03-20T11:16:41.000Z,9.27
2023-03-20T11:19:08.840Z,8.15
2023-03-20T11:21:37.124Z,8.40
2023-03-20T11:24:05.598Z,7.97
2023-03-20T11:26:37.842Z,8.60
2023-03-20T11:29:11.823Z,6.85
2023-03-20T11:31:41.342Z,5.80
2023-03-20T11:34:11.529Z,5.97
2023-03-20T11:36:41.627Z,5.22
2023-03-20T11:39:08.124Z,5.15
2023-03-20T11:41:35.297Z,4.72
2023-03-20T11:44:02.030Z,5.55
2023-03-20T11:46:28.724Z,5.90
2023-03-20T11:49:03.280Z,5.28
2023-03-20T11:51:30.847Z,5.68
2023-03-20T11:54:02.340Z,4.82
2023-03-20T11:56:30.179Z,5.18
2023-03-20T11:58:58.151Z,5.07
2023-03-20T12:01:25.694Z,3.83
2023-03-20T12:03:55.797Z,3.70
2023-03-20T12:06:24.918Z,4.10
2023-03-20T12:08:59.635Z,4.00
2023-03-20T12:11:32.875Z,3.63
2023-03-20T12:14:00.705Z,3.55
2023-03-20T12:16:27.962Z,3.00
2023-03-20T12:18:56.423Z,2.83
2023-03-20T12:21:24.408Z,3.00
2023-03-20T12:23:57.011Z,3.53
2023-03-20T12:26:35.708Z,2.83
2023-03-20T12:29:09.674Z,3.05
2023-03-20T12:31:39.674Z,2.47
2023-03-20T12:34:28.253Z,3.00
2023-03-20T12:36:57.657Z,2.78
2023-03-20T12:39:24.249Z,2.60
2023-03-20T12:42:10.860Z,2.20
2023-03-20T12:44:46.606Z,2.13
2023-03-20T12:47:13.607Z,1.88
2023-03-20T12:49:39.985Z,2.05
2023-03-20T12:52:09.366Z,1.90
2023-03-20T12:54:43.937Z,1.80
2023-03-20T12:57:34.227Z,1.60
2023-03-20T13:00:20.206Z,1.50
2023-03-20T13:03:11.466Z,1.38
2023-03-20T13:05:44.821Z,1.85
2023-03-20T13:08:17.319Z,1.20
2023-03-20T13:11:06.312Z,1.83
2023-03-20T13:13:32.726Z,1.90
2023-03-20T13:16:09.722Z,1.23
2023-03-20T13:18:48.790Z,1.73
2023-03-20T13:21:23.123Z,1.50
2023-03-20T13:24:03.324Z,1.88
2023-03-20T13:26:37.331Z,1.50
2023-03-20T13:29:08.596Z,1.60
2023-03-20T13:31:41.550Z,1.63
2023-03-20T13:34:12.907Z,1.70
2023-03-20T13:36:45.953Z,1.52
2023-03-20T13:39:14.321Z,1.85
2023-03-20T13:41:41.146Z,1.67
2023-03-20T13:44:10.811Z,1.70
2023-03-20T13:46:45.726Z,2.10
2023-03-20T13:49:15.695Z,1.83
2023-03-20T13:51:45.801Z,2.50
2023-03-20T13:54:22.400Z,2.17
2023-03-20T13:56:48.725Z,2.28
2023-03-20T13:59:34.570Z,2.63
2023-03-20T14:02:09.744Z,2.38
2023-03-20T14:04:36.831Z,2.20
2023-03-20T14:07:23.297Z,2.40
2023-03-20T14:09:53.840Z,2.42
2023-03-20T14:12:23.862Z,2.33
2023-03-20T14:14:53.071Z,2.42
2023-03-20T14:17:29.868Z,2.97
2023-03-20T14:19:57.244Z,3.25
2023-03-20T14:22:27.667Z,3.38
2023-03-20T14:24:57.105Z,3.22
2023-03-20T14:27:42.829Z,2.95
2023-03-20T14:30:37.057Z,3.35
2023-03-20T14:33:12.986Z,4.35
2023-03-20T14:35:44.544Z,3.70
2023-03-20T14:38:14.078Z,3.83
2023-03-20T14:40:52.107Z,3.88
2023-03-20T14:43:25.393Z,4.30
2023-03-20T14:45:57.195Z,4.22
2023-03-20T14:48:24.989Z,4.18
2023-03-20T14:50:57.235Z,3.90
2023-03-20T14:53:25.363Z,4.13
2023-03-20T14:55:58.525Z,3.95
2023-03-20T14:58:46.183Z,4.00
2023-03-20T15:01:20.091Z,4.25
2023-03-20T15:06:17.810Z,3.22
2023-03-20T15:08:51.183Z,3.17
2023-03-20T15:11:18.634Z,2.80
2023-03-20T15:13:46.145Z,2.00
2023-03-20T15:16:14.957Z,2.72
2023-03-20T15:18:43.095Z,2.42
2023-03-20T15:21:21.938Z,2.65
2023-03-20T15:23:48.432Z,2.20
2023-03-20T15:26:16.581Z,2.38
2023-03-20T15:28:43.933Z,2.05
2023-03-20T15:31:19.418Z,1.73
2023-03-20T15:33:45.871Z,1.90
2023-03-20T15:36:20.330Z,1.60
2023-03-20T15:38:47.739Z,1.40
2023-03-20T15:41:24.370Z,1.75
2023-03-20T15:43:51.176Z,1.50
2023-03-20T15:46:19.128Z,1.60
2023-03-20T15:48:50.896Z,1.80
2023-03-20T15:51:18.462Z,2.28
2023-03-20T15:53:46.060Z,1.52
2023-03-20T15:56:18.762Z,1.80
2023-03-20T15:58:46.265Z,1.80
2023-03-20T16:01:23.640Z,1.70
2023-03-20T16:03:50.955Z,2.00
2023-03-20T16:06:19.316Z,2.20
2023-03-20T16:08:46.892Z,1.90
2023-03-20T16:11:14.396Z,1.98
2023-03-20T16:13:42.953Z,1.67
2023-03-20T16:16:13.486Z,1.88
2023-03-20T16:18:40.583Z,2.13
2023-03-20T16:21:13.192Z,1.90
2023-03-20T16:23:41.473Z,1.90
2023-03-20T16:26:10.994Z,2.72
2023-03-20T16:28:38.268Z,2.65
2023-03-20T16:31:09.220Z,2.42
2023-03-20T16:33:36.536Z,3.03
2023-03-20T16:36:04.245Z,2.40
2023-03-20T16:38:36.361Z,2.28
2023-03-20T16:41:21.779Z,2.90
2023-03-20T16:43:51.787Z,3.00
2023-03-20T16:46:24.860Z,2.80
2023-03-20T16:48:52.759Z,3.10
2023-03-20T16:51:31.810Z,3.38
2023-03-20T16:54:02.289Z,3.80
2023-03-20T16:56:33.078Z,3.78
2023-03-20T16:59:05.763Z,3.22
2023-03-20T17:01:33.171Z,3.03
2023-03-20T17:04:13.601Z,3.70
2023-03-20T17:06:44.551Z,3.47
2023-03-20T17:09:12.178Z,3.45
2023-03-20T17:11:40.201Z,4.15
2023-03-20T17:14:07.050Z,3.83
2023-03-20T17:16:34.236Z,3.60
2023-03-20T17:19:10.556Z,3.17
2023-03-20T17:21:37.117Z,3.72
2023-03-20T17:24:03.697Z,2.90
2023-03-20T17:26:30.675Z,2.90
2023-03-20T17:28:57.818Z,3.42
2023-03-20T17:31:25.012Z,4.10
2023-03-20T17:33:57.865Z,2.95
2023-03-20T17:36:30.211Z,3.22
2023-03-20T17:38:57.569Z,3.00
2023-03-20T17:41:25.163Z,3.20
2023-03-20T17:43:52.258Z,3.25
2023-03-20T17:46:27.142Z,3.25
2023-03-20T17:49:07.829Z,3.00
2023-03-20T17:51:35.490Z,3.00
2023-03-20T17:54:02.098Z,3.00
2023-03-20T17:56:32.752Z,2.95
2023-03-20T17:59:00.188Z,2.80
2023-03-20T18:01:27.288Z,2.83
2023-03-20T18:03:55.016Z,3.17
2023-03-20T18:06:24.034Z,3.40
2023-03-20T18:08:50.874Z,3.00
2023-03-20T18:11:27.664Z,3.50
2023-03-20T18:13:54.182Z,3.20
2023-03-20T18:16:21.933Z,2.75
2023-03-20T18:18:48.959Z,2.80
2023-03-20T18:21:16.711Z,3.20
2023-03-20T18:23:43.964Z,3.10
2023-03-20T18:26:18.250Z,2.60
2023-03-20T18:28:45.065Z,2.35
2023-03-20T18:31:13.103Z,2.80
2023-03-20T18:33:40.142Z,2.70
2023-03-20T18:36:09.204Z,2.90
2023-03-20T18:38:35.892Z,2.80
2023-03-20T18:41:02.286Z,2.78
2023-03-20T18:43:28.637Z,3.58
2023-03-20T18:45:58.901Z,2.40
2023-03-20T18:48:25.799Z,3.20
2023-03-20T18:51:07.754Z,3.55
2023-03-20T18:53:36.783Z,2.65
2023-03-20T18:56:04.118Z,2.80
2023-03-20T18:58:31.714Z,2.85
2023-03-20T19:01:00.612Z,3.15
2023-03-20T19:03:28.923Z,2.90
2023-03-20T19:05:57.856Z,3.05
2023-03-20T19:08:24.570Z,3.40
2023-03-20T19:10:51.588Z,2.88
2023-03-20T19:13:19.364Z,2.72
2023-03-20T19:15:46.298Z,3.17
2023-03-20T19:18:17.759Z,3.35
2023-03-20T19:20:47.033Z,3.40
2023-03-20T19:23:14.419Z,3.97
2023-03-20T19:25:43.985Z,3.67
2023-03-20T19:28:21.520Z,3.78
2023-03-20T19:30:49.116Z,3.75
2023-03-20T19:33:16.640Z,3.70
2023-03-20T19:36:01.946Z,3.53
2023-03-20T19:38:30.766Z,3.85
2023-03-20T19:40:58.091Z,3.47
2023-03-20T19:43:26.134Z,3.80
2023-03-20T19:45:58.048Z,2.88
2023-03-20T19:48:27.048Z,3.10
2023-03-20T19:50:53.808Z,3.20
2023-03-20T19:53:21.475Z,2.58
2023-03-20T19:55:48.418Z,3.00
2023-03-20T19:58:14.939Z,2.97
2023-03-20T20:00:59.165Z,3.10
2023-03-20T20:03:27.301Z,3.13
2023-03-20T20:05:54.688Z,3.17
2023-03-20T20:08:41.309Z,2.63
2023-03-20T20:11:14.369Z,3.20
2023-03-20T20:14:03.794Z,3.05
2023-03-20T20:16:28.094Z,3.08
2023-03-20T20:18:54.498Z,2.53
2023-03-20T20:24:07.635Z,3.13
2023-03-20T20:26:38.872Z,2.92
2023-03-20T20:29:07.793Z,3.17
2023-03-20T20:31:34.187Z,2.60
2023-03-20T20:34:45.304Z,3.35
2023-03-20T20:39:35.233Z,3.00
2023-03-20T20:42:01.860Z,3.28
2023-03-20T20:44:28.392Z,3.03
2023-03-20T20:46:57.683Z,3.17
2023-03-20T20:49:24.243Z,2.78
2023-03-20T20:51:52.604Z,3.10
2023-03-20T20:54:19.134Z,2.92
2023-03-20T20:56:46.398Z,2.92
2023-03-20T20:59:13.564Z,2.97
2023-03-20T21:01:40.585Z,3.17
2023-03-20T21:04:07.197Z,3.00
2023-03-20T21:07:05.795Z,3.03
2023-03-20T21:09:20.496Z,3.03
2023-03-20T21:11:47.273Z,2.90
2023-03-20T21:14:14.003Z,3.05
2023-03-20T21:16:40.343Z,2.90
2023-03-20T21:19:07.368Z,3.40
2023-03-20T21:21:35.034Z,3.03
2023-03-20T21:24:02.514Z,3.08
2023-03-20T21:26:28.942Z,2.97
2023-03-20T21:28:55.921Z,3.85
2023-03-20T21:31:26.777Z,3.08
2023-03-20T21:33:55.576Z,3.05
2023-03-20T21:36:23.437Z,2.85
2023-03-20T21:39:07.317Z,2.97
2023-03-20T21:41:34.694Z,2.70
2023-03-20T21:44:01.679Z,2.80
2023-03-20T21:58:21.392Z,2.90
2023-03-20T22:03:14.044Z,3.20
2023-03-20T22:06:38.561Z,3.53
2023-03-20T22:12:07.870Z,3.60
2023-03-20T22:15:03.854Z,3.70
2023-03-20T22:17:45.610Z,3.67
2023-03-20T22:26:23.962Z,3.88
2023-03-20T22:37:24.618Z,3.20
2023-03-20T22:40:18.136Z,3.60
2023-03-20T22:45:02.820Z,3.47
2023-03-20T22:47:31.787Z,3.22
2023-03-20T22:49:58.885Z,3.20
2023-03-20T22:52:35.070Z,3.22
2023-03-20T22:55:09.652Z,3.22
2023-03-20T22:57:47.411Z,3.63
2023-03-20T23:00:21.375Z,3.47
2023-03-20T23:02:52.908Z,3.28
2023-03-20T23:05:20.304Z,3.38
2023-03-20T23:07:50.899Z,3.67
2023-03-20T23:10:18.539Z,3.50
2023-03-20T23:12:44.961Z,3.40
2023-03-20T23:15:13.013Z,4.38
2023-03-20T23:17:39.430Z,3.60
2023-03-20T23:20:12.294Z,3.25
2023-03-20T23:22:40.576Z,3.55
2023-03-20T23:25:20.705Z,4.07
2023-03-20T23:27:50.405Z,3.67
2023-03-20T23:30:16.911Z,3.20
2023-03-20T23:32:43.439Z,3.95
2023-03-20T23:35:10.305Z,3.58
2023-03-20T23:37:37.011Z,3.92
2023-03-20T23:40:04.712Z,3.65
2023-03-20T23:42:31.340Z,3.70
2023-03-20T23:45:04.494Z,4.82
2023-03-20T23:47:44.497Z,3.97
2023-03-20T23:50:20.794Z,4.03
2023-03-20T23:53:01.073Z,4.15
2023-03-20T23:55:30.722Z,4.22
2023-03-20T23:57:57.223Z,4.43
